Time;durP1;ratioP1;P1;durP2;ratioP2;P2;SDS_P1;SDS_P2;PMS_P1;PMS_P2;Temp;Humidity;BMP_temperature;BMP_pressure;BME280_temperature;BME280_humidity;BME280_pressure;Samples;Min_cycle;Max_cycle;Signal;HPM_P1;HPM_P2
2023/12/09 00:01:24;;;;;;;8.25;4.97;;;;;;;;;;5031434;28;20033;-87
2023/12/09 00:03:50;;;;;;;8.52;5.00;;;;;;;;;;5031942;28;20034;-87
2023/12/09 00:06:15;;;;;;;8.10;4.85;;;;;;;;;;5016343;28;20044;-87
2023/12/09 00:08:41;;;;;;;6.30;3.65;;;;;;;;;;5038749;28;20087;-87
2023/12/09 00:11:06;;;;;;;4.50;3.58;;;;;;;;;;5034696;28;20079;-88
2023/12/09 00:13:32;;;;;;;5.78;3.80;;;;;;;;;;5034722;28;20034;-88
2023/12/09 00:15:58;;;;;;;5.22;3.60;;;;;;;;;;5036483;28;20510;-88
2023/12/09 00:18:23;;;;;;;5.47;3.80;;;;;;;;;;5035190;28;20447;-87
2023/12/09 00:20:49;;;;;;;5.63;3.92;;;;;;;;;;5039167;28;20041;-87
2023/12/09 00:23:15;;;;;;;7.45;4.50;;;;;;;;;;5025794;28;20044;-87
2023/12/09 00:25:41;;;;;;;7.60;4.70;;;;;;;;;;5037393;28;20079;-87
2023/12/09 00:28:06;;;;;;;7.70;4.82;;;;;;;;;;5032874;28;20044;-87
2023/12/09 00:30:32;;;;;;;6.68;4.53;;;;;;;;;;5039417;28;20055;-86
2023/12/09 00:32:57;;;;;;;6.68;4.00;;;;;;;;;;5039466;28;20022;-87
2023/12/09 00:35:23;;;;;;;6.80;4.18;;;;;;;;;;5036139;28;20401;-88
2023/12/09 00:37:50;;;;;;;6.78;4.38;;;;;;;;;;5030925;28;20971;-87
2023/12/09 00:40:15;;;;;;;6.07;4.22;;;;;;;;;;5036203;28;20194;-87
2023/12/09 00:42:41;;;;;;;6.40;4.35;;;;;;;;;;5037074;28;20551;-86
2023/12/09 00:45:06;;;;;;;5.97;3.22;;;;;;;;;;5031469;28;20088;-87
2023/12/09 00:47:32;;;;;;;4.53;3.05;;;;;;;;;;5035444;28;20162;-87
2023/12/09 00:49:57;;;;;;;4.25;3.10;;;;;;;;;;5034619;28;20070;-88
2023/12/09 00:52:23;;;;;;;5.00;3.53;;;;;;;;;;5037462;28;20074;-87
2023/12/09 00:54:48;;;;;;;4.40;2.83;;;;;;;;;;5039286;28;20134;-86
2023/12/09 00:57:14;;;;;;;4.57;3.00;;;;;;;;;;5034666;28;20036;-88
2023/12/09 00:59:39;;;;;;;3.75;2.83;;;;;;;;;;5033571;28;20120;-87
2023/12/09 01:02:05;;;;;;;4.75;2.70;;;;;;;;;;5034287;28;20596;-87
2023/12/09 01:04:31;;;;;;;3.47;2.50;;;;;;;;;;5031433;28;20041;-87
2023/12/09 01:06:56;;;;;;;4.85;3.00;;;;;;;;;;5035150;28;20106;-88
2023/12/09 01:09:22;;;;;;;4.78;3.25;;;;;;;;;;5034365;28;20037;-88
2023/12/09 01:11:47;;;;;;;4.30;3.00;;;;;;;;;;5036739;28;20112;-87
2023/12/09 01:14:13;;;;;;;4.88;3.30;;;;;;;;;;5041824;28;20025;-87
2023/12/09 01:16:38;;;;;;;4.75;3.13;;;;;;;;;;5040812;28;20468;-87
2023/12/09 01:19:04;;;;;;;7.47;3.65;;;;;;;;;;5037327;28;20059;-87
2023/12/09 01:21:29;;;;;;;4.80;3.10;;;;;;;;;;5042733;28;20039;-87
2023/12/09 01:23:55;;;;;;;3.97;2.88;;;;;;;;;;5034629;28;20537;-87
2023/12/09 01:26:20;;;;;;;4.25;3.08;;;;;;;;;;5039014;28;20109;-87
2023/12/09 01:28:45;;;;;;;5.15;3.50;;;;;;;;;;5036188;28;20053;-87
2023/12/09 01:31:11;;;;;;;4.53;3.20;;;;;;;;;;5039593;28;20529;-87
2023/12/09 01:33:38;;;;;;;4.47;3.50;;;;;;;;;;5041632;28;20364;-87
2023/12/09 01:36:04;;;;;;;5.82;4.03;;;;;;;;;;5023333;28;20030;-87
2023/12/09 01:38:29;;;;;;;6.75;3.65;;;;;;;;;;5041213;28;20072;-88
2023/12/09 01:40:55;;;;;;;4.88;3.58;;;;;;;;;;5034660;28;20438;-87
2023/12/09 01:43:21;;;;;;;4.82;3.47;;;;;;;;;;5040509;28;20033;-88
2023/12/09 01:45:49;;;;;;;4.72;3.58;;;;;;;;;;5034925;28;20530;-87
2023/12/09 01:48:15;;;;;;;5.63;4.30;;;;;;;;;;5041506;28;20481;-87
2023/12/09 01:50:41;;;;;;;7.28;4.95;;;;;;;;;;5039472;28;20095;-86
2023/12/09 01:53:06;;;;;;;8.05;5.05;;;;;;;;;;5037234;28;20093;-88
2023/12/09 01:55:32;;;;;;;7.18;4.63;;;;;;;;;;5042743;28;20055;-87
2023/12/09 01:57:58;;;;;;;6.65;4.70;;;;;;;;;;5047021;28;20037;-88
2023/12/09 02:00:24;;;;;;;7.22;5.07;;;;;;;;;;5037931;28;20033;-88
2023/12/09 02:02:50;;;;;;;7.15;5.10;;;;;;;;;;5037005;28;20066;-87
2023/12/09 02:05:15;;;;;;;8.50;5.60;;;;;;;;;;5039600;28;20072;-88
2023/12/09 02:07:41;;;;;;;9.18;5.68;;;;;;;;;;5049596;28;20041;-85
2023/12/09 02:10:07;;;;;;;7.07;5.50;;;;;;;;;;5033787;28;20046;-88
2023/12/09 02:12:43;;;;;;;6.82;4.70;;;;;;;;;;5034639;28;20068;-87
2023/12/09 02:15:18;;;;;;;8.20;5.25;;;;;;;;;;5037617;28;20045;-87
2023/12/09 02:17:50;;;;;;;7.80;5.57;;;;;;;;;;5031153;28;20037;-87
2023/12/09 02:20:15;;;;;;;7.85;5.70;;;;;;;;;;5039440;28;20034;-87
2023/12/09 02:22:41;;;;;;;7.63;5.50;;;;;;;;;;5039552;28;20036;-87
2023/12/09 02:25:07;;;;;;;8.10;5.30;;;;;;;;;;5042949;28;20380;-88
2023/12/09 02:27:52;;;;;;;7.22;5.57;;;;;;;;;;5036917;28;20509;-88
2023/12/09 02:30:28;;;;;;;6.97;4.68;;;;;;;;;;5038839;28;20491;-87
2023/12/09 02:32:55;;;;;;;7.88;4.90;;;;;;;;;;5029820;28;20037;-88
2023/12/09 02:35:24;;;;;;;7.47;5.38;;;;;;;;;;5042162;28;20033;-88
2023/12/09 02:37:51;;;;;;;8.18;5.78;;;;;;;;;;5041323;28;20406;-88
2023/12/09 02:40:17;;;;;;;7.65;5.22;;;;;;;;;;5036894;28;20060;-87
2023/12/09 02:42:44;;;;;;;9.20;5.80;;;;;;;;;;5035834;28;20029;-86
2023/12/09 02:45:11;;;;;;;6.75;5.20;;;;;;;;;;5036799;28;20048;-88
2023/12/09 02:47:36;;;;;;;6.85;5.18;;;;;;;;;;5040591;28;20490;-88
2023/12/09 02:50:02;;;;;;;7.95;5.20;;;;;;;;;;5036083;28;20037;-86
2023/12/09 02:52:28;;;;;;;7.35;5.30;;;;;;;;;;5038521;28;20395;-86
2023/12/09 02:54:54;;;;;;;8.68;5.63;;;;;;;;;;5042007;28;20047;-87
2023/12/09 02:57:20;;;;;;;8.35;6.05;;;;;;;;;;5040725;28;20116;-88
2023/12/09 02:59:45;;;;;;;8.85;5.88;;;;;;;;;;5042692;28;20554;-88
2023/12/09 03:02:10;;;;;;;7.93;5.38;;;;;;;;;;5040139;28;20445;-87
2023/12/09 03:04:36;;;;;;;7.53;5.20;;;;;;;;;;5034412;28;20037;-88
2023/12/09 03:07:01;;;;;;;7.38;5.53;;;;;;;;;;5043445;28;20072;-87
2023/12/09 03:09:27;;;;;;;8.38;6.05;;;;;;;;;;5032438;28;20021;-87
2023/12/09 03:11:52;;;;;;;7.20;5.43;;;;;;;;;;5036575;28;20060;-87
2023/12/09 03:14:18;;;;;;;7.95;5.60;;;;;;;;;;5020207;28;20538;-88
2023/12/09 03:16:43;;;;;;;7.10;5.40;;;;;;;;;;5038922;28;21064;-87
2023/12/09 03:19:09;;;;;;;7.32;5.47;;;;;;;;;;5040836;28;20044;-87
2023/12/09 03:21:34;;;;;;;7.07;5.50;;;;;;;;;;5043757;28;20045;-88
2023/12/09 03:24:00;;;;;;;8.00;5.68;;;;;;;;;;5036882;28;20033;-88
2023/12/09 03:26:26;;;;;;;8.57;5.72;;;;;;;;;;5040600;28;20062;-86
2023/12/09 03:28:54;;;;;;;8.18;5.10;;;;;;;;;;5039771;28;20021;-87
2023/12/09 03:31:20;;;;;;;8.77;5.90;;;;;;;;;;5030357;28;20056;-88
2023/12/09 03:34:04;;;;;;;7.45;5.43;;;;;;;;;;5035236;28;20471;-87
2023/12/09 03:36:30;;;;;;;9.55;5.80;;;;;;;;;;5026260;28;20037;-88
2023/12/09 03:38:55;;;;;;;8.35;5.60;;;;;;;;;;5040999;28;20043;-87
2023/12/09 03:41:21;;;;;;;5.68;4.40;;;;;;;;;;5034855;28;20053;-88
2023/12/09 03:43:46;;;;;;;6.85;5.00;;;;;;;;;;5039025;28;20071;-88
2023/12/09 03:46:13;;;;;;;8.40;5.43;;;;;;;;;;5035943;28;20041;-87
2023/12/09 03:48:38;;;;;;;8.52;5.95;;;;;;;;;;5043747;28;20048;-87
2023/12/09 03:51:04;;;;;;;9.23;5.95;;;;;;;;;;5033103;28;20038;-88
2023/12/09 03:53:29;;;;;;;8.00;5.43;;;;;;;;;;5039607;28;20085;-88
2023/12/09 03:55:55;;;;;;;7.65;5.20;;;;;;;;;;5036079;28;20041;-88
2023/12/09 03:58:22;;;;;;;7.45;4.80;;;;;;;;;;5037894;28;20033;-87
2023/12/09 04:00:48;;;;;;;6.70;5.00;;;;;;;;;;5039415;28;20502;-88
2023/12/09 04:03:14;;;;;;;6.10;4.60;;;;;;;;;;5039715;28;20041;-88
2023/12/09 04:05:43;;;;;;;8.00;5.68;;;;;;;;;;5036800;28;20075;-87
2023/12/09 04:08:09;;;;;;;7.70;5.55;;;;;;;;;;5038801;28;20405;-87
2023/12/09 04:10:34;;;;;;;7.15;5.13;;;;;;;;;;5038632;28;20041;-87
2023/12/09 04:13:03;;;;;;;6.22;4.70;;;;;;;;;;5036948;28;20029;-87
2023/12/09 04:15:29;;;;;;;7.88;4.45;;;;;;;;;;5031515;28;20029;-87
2023/12/09 04:17:54;;;;;;;6.30;4.78;;;;;;;;;;5041640;28;20040;-87
2023/12/09 04:20:20;;;;;;;5.65;3.90;;;;;;;;;;5040719;28;20076;-88
2023/12/09 04:22:47;;;;;;;6.45;3.95;;;;;;;;;;5040772;28;20056;-87
2023/12/09 04:25:12;;;;;;;6.30;4.40;;;;;;;;;;5043342;28;20045;-88
2023/12/09 04:27:39;;;;;;;5.70;4.07;;;;;;;;;;5040134;28;20036;-87
2023/12/09 04:30:05;;;;;;;5.85;4.13;;;;;;;;;;5036339;28;20039;-88
2023/12/09 04:32:31;;;;;;;5.97;4.63;;;;;;;;;;5031010;28;20025;-87
2023/12/09 04:35:00;;;;;;;6.00;4.47;;;;;;;;;;5040411;28;20061;-88
2023/12/09 04:37:25;;;;;;;6.38;4.80;;;;;;;;;;5024859;28;20381;-87
2023/12/09 04:39:51;;;;;;;7.10;5.38;;;;;;;;;;5040470;28;20100;-87
2023/12/09 04:42:18;;;;;;;7.03;5.05;;;;;;;;;;5040812;28;20128;-87
2023/12/09 04:44:44;;;;;;;6.18;4.47;;;;;;;;;;5038970;28;20053;-88
2023/12/09 04:47:09;;;;;;;6.57;5.18;;;;;;;;;;5042383;28;20022;-87
2023/12/09 04:49:34;;;;;;;7.50;4.85;;;;;;;;;;5046314;28;20041;-87
2023/12/09 04:52:00;;;;;;;7.07;4.80;;;;;;;;;;5041038;28;20415;-87
2023/12/09 04:54:25;;;;;;;6.53;4.60;;;;;;;;;;5037277;28;20104;-87
2023/12/09 04:56:51;;;;;;;7.47;4.68;;;;;;;;;;5039450;28;20562;-87
2023/12/09 04:59:16;;;;;;;6.50;4.85;;;;;;;;;;5042609;28;20044;-87
2023/12/09 05:01:42;;;;;;;6.90;4.90;;;;;;;;;;5041555;28;20132;-87
2023/12/09 05:04:08;;;;;;;6.78;4.65;;;;;;;;;;5040601;28;20022;-86
2023/12/09 05:06:34;;;;;;;6.57;4.90;;;;;;;;;;5041037;28;20029;-88
2023/12/09 05:09:00;;;;;;;7.03;4.50;;;;;;;;;;5037082;28;20052;-87
2023/12/09 05:11:28;;;;;;;5.80;4.40;;;;;;;;;;5045183;28;20043;-87
2023/12/09 05:13:54;;;;;;;6.80;4.97;;;;;;;;;;5039088;28;20022;-88
2023/12/09 05:16:22;;;;;;;6.28;4.40;;;;;;;;;;5037307;28;20498;-87
2023/12/09 05:18:47;;;;;;;6.70;5.20;;;;;;;;;;5034967;28;20091;-87
2023/12/09 05:21:13;;;;;;;10.23;5.55;;;;;;;;;;5040889;28;20029;-86
2023/12/09 05:23:38;;;;;;;10.00;5.88;;;;;;;;;;5041774;28;20063;-87
2023/12/09 05:26:04;;;;;;;8.95;5.90;;;;;;;;;;5044030;28;20461;-87
2023/12/09 05:28:30;;;;;;;7.47;5.50;;;;;;;;;;5038493;28;20106;-87
2023/12/09 05:30:56;;;;;;;9.48;6.50;;;;;;;;;;5036605;28;20036;-87
2023/12/09 05:33:22;;;;;;;10.05;6.47;;;;;;;;;;5037487;28;20025;-87
2023/12/09 05:35:48;;;;;;;11.80;8.38;;;;;;;;;;5034919;28;20395;-87
2023/12/09 05:38:13;;;;;;;10.60;6.97;;;;;;;;;;5032461;28;20495;-87
2023/12/09 05:40:39;;;;;;;16.52;12.40;;;;;;;;;;5038327;28;20037;-87
2023/12/09 05:43:04;;;;;;;8.38;6.10;;;;;;;;;;5040456;28;20041;-87
2023/12/09 05:45:30;;;;;;;9.02;6.00;;;;;;;;;;5037120;28;20038;-87
2023/12/09 05:47:56;;;;;;;8.77;6.00;;;;;;;;;;5040439;28;20025;-88
2023/12/09 05:50:21;;;;;;;8.18;6.10;;;;;;;;;;5037775;28;20440;-87
2023/12/09 05:52:47;;;;;;;8.13;5.75;;;;;;;;;;5044846;28;20502;-86
2023/12/09 05:55:16;;;;;;;8.75;6.25;;;;;;;;;;5038348;28;20790;-87
2023/12/09 05:57:43;;;;;;;11.38;8.15;;;;;;;;;;5025889;28;20066;-88
2023/12/09 06:00:10;;;;;;;10.52;7.72;;;;;;;;;;5034177;28;20422;-87
2023/12/09 06:02:35;;;;;;;7.30;5.68;;;;;;;;;;5040882;28;20037;-87
2023/12/09 06:05:01;;;;;;;7.57;5.40;;;;;;;;;;5042059;28;20527;-86
2023/12/09 06:07:26;;;;;;;8.60;5.88;;;;;;;;;;5044452;28;20128;-87
2023/12/09 06:09:52;;;;;;;8.02;5.82;;;;;;;;;;5041242;28;20086;-87
2023/12/09 06:12:17;;;;;;;6.60;4.85;;;;;;;;;;5045086;28;20509;-87
2023/12/09 06:14:42;;;;;;;6.95;4.95;;;;;;;;;;5042075;28;20601;-85
2023/12/09 06:17:11;;;;;;;9.57;6.25;;;;;;;;;;5033607;28;20049;-86
2023/12/09 06:19:36;;;;;;;9.10;5.93;;;;;;;;;;5034274;28;20051;-88
2023/12/09 06:22:02;;;;;;;7.90;5.43;;;;;;;;;;5019706;28;20026;-88
2023/12/09 06:24:27;;;;;;;7.68;5.07;;;;;;;;;;5042287;28;20391;-89
2023/12/09 06:26:53;;;;;;;6.80;4.68;;;;;;;;;;5044604;28;20033;-88
2023/12/09 06:29:19;;;;;;;8.23;5.45;;;;;;;;;;5043957;28;20095;-88
2023/12/09 06:31:44;;;;;;;11.93;6.80;;;;;;;;;;5041294;28;20037;-88
2023/12/09 06:34:10;;;;;;;10.35;6.70;;;;;;;;;;5039605;28;20029;-89
2023/12/09 06:36:35;;;;;;;9.40;5.88;;;;;;;;;;5034169;28;20045;-88
2023/12/09 06:39:01;;;;;;;11.32;6.85;;;;;;;;;;5039880;28;20029;-89
2023/12/09 06:41:26;;;;;;;10.07;6.20;;;;;;;;;;5032019;28;20026;-87
2023/12/09 06:43:52;;;;;;;8.90;5.90;;;;;;;;;;5041701;28;20037;-88
2023/12/09 06:46:17;;;;;;;7.85;5.35;;;;;;;;;;5040457;28;20037;-89
2023/12/09 06:48:42;;;;;;;7.97;5.50;;;;;;;;;;5036218;28;20097;-88
2023/12/09 06:51:15;;;;;;;8.05;5.15;;;;;;;;;;5038520;28;20446;-87
2023/12/09 06:53:42;;;;;;;7.00;4.80;;;;;;;;;;5037794;28;20053;-90
2023/12/09 06:56:08;;;;;;;7.55;5.10;;;;;;;;;;5043505;28;20038;-89
2023/12/09 06:58:34;;;;;;;7.22;4.88;;;;;;;;;;5036128;28;20068;-87
2023/12/09 07:00:59;;;;;;;6.85;5.25;;;;;;;;;;5037494;28;20061;-88
2023/12/09 07:03:25;;;;;;;9.57;6.30;;;;;;;;;;5034239;28;20123;-87
2023/12/09 07:05:50;;;;;;;13.73;8.07;;;;;;;;;;5036433;28;20033;-88
2023/12/09 07:08:16;;;;;;;12.38;7.22;;;;;;;;;;5037488;28;20061;-88
2023/12/09 07:10:46;;;;;;;14.73;8.60;;;;;;;;;;5036265;28;20068;-88
2023/12/09 07:13:11;;;;;;;18.05;10.10;;;;;;;;;;5034363;28;20024;-85
2023/12/09 07:15:37;;;;;;;9.70;6.32;;;;;;;;;;5038573;28;20059;-87
2023/12/09 07:18:02;;;;;;;11.05;7.00;;;;;;;;;;5034510;28;20434;-89
2023/12/09 07:20:28;;;;;;;9.98;6.65;;;;;;;;;;5035590;28;20037;-89
2023/12/09 07:22:53;;;;;;;9.35;6.15;;;;;;;;;;5035793;28;20045;-87
2023/12/09 07:25:19;;;;;;;8.85;6.07;;;;;;;;;;5039705;28;20051;-87
2023/12/09 07:27:45;;;;;;;7.93;5.70;;;;;;;;;;5043371;28;20047;-88
2023/12/09 07:30:11;;;;;;;7.22;5.05;;;;;;;;;;5043630;28;20135;-89
2023/12/09 07:32:36;;;;;;;7.55;5.28;;;;;;;;;;5038174;28;20071;-88
2023/12/09 07:35:02;;;;;;;7.22;5.18;;;;;;;;;;5041692;28;20089;-87
2023/12/09 07:37:27;;;;;;;6.95;5.10;;;;;;;;;;5040548;28;20087;-87
2023/12/09 07:39:53;;;;;;;7.80;5.53;;;;;;;;;;5031385;28;20068;-87
2023/12/09 07:42:18;;;;;;;7.43;5.15;;;;;;;;;;5027413;28;20041;-89
2023/12/09 07:44:44;;;;;;;8.65;5.50;;;;;;;;;;5035627;28;20064;-86
2023/12/09 07:47:09;;;;;;;7.70;5.68;;;;;;;;;;5038557;28;20049;-86
2023/12/09 07:49:35;;;;;;;10.82;7.00;;;;;;;;;;5037191;28;20033;-87
2023/12/09 07:52:03;;;;;;;8.85;6.10;;;;;;;;;;5036507;28;20041;-85
2023/12/09 07:54:29;;;;;;;7.32;5.30;;;;;;;;;;5040055;28;20035;-85
2023/12/09 07:56:54;;;;;;;8.57;5.75;;;;;;;;;;5039310;28;20437;-86
2023/12/09 07:59:20;;;;;;;7.50;5.35;;;;;;;;;;5028933;28;20116;-85
2023/12/09 08:01:45;;;;;;;11.25;6.10;;;;;;;;;;5035613;28;20049;-86
2023/12/09 08:04:11;;;;;;;9.82;6.43;;;;;;;;;;5035493;28;20056;-85
2023/12/09 08:06:37;;;;;;;11.65;6.55;;;;;;;;;;5035950;28;20034;-87
2023/12/09 08:09:02;;;;;;;8.85;5.85;;;;;;;;;;5041976;28;20037;-86
2023/12/09 08:11:28;;;;;;;10.60;5.82;;;;;;;;;;5045842;28;20087;-86
2023/12/09 08:13:53;;;;;;;8.63;6.05;;;;;;;;;;5042413;28;20049;-85
2023/12/09 08:16:19;;;;;;;8.80;5.90;;;;;;;;;;5041799;28;20037;-89
2023/12/09 08:18:45;;;;;;;8.98;6.10;;;;;;;;;;5043057;28;20045;-88
2023/12/09 08:21:10;;;;;;;8.95;5.78;;;;;;;;;;5039101;28;20105;-88
2023/12/09 08:23:36;;;;;;;6.70;5.07;;;;;;;;;;5038277;28;20080;-88
2023/12/09 08:26:02;;;;;;;7.90;5.10;;;;;;;;;;5040082;28;20037;-88
2023/12/09 08:28:27;;;;;;;8.13;5.35;;;;;;;;;;5041891;28;20124;-89
2023/12/09 08:30:53;;;;;;;8.13;5.70;;;;;;;;;;5038869;28;20029;-87
2023/12/09 08:33:18;;;;;;;8.90;5.85;;;;;;;;;;5039721;28;20033;-88
2023/12/09 08:35:44;;;;;;;9.30;6.28;;;;;;;;;;5038648;28;20064;-87
2023/12/09 08:38:09;;;;;;;14.55;7.22;;;;;;;;;;5022072;28;20029;-87
2023/12/09 08:40:35;;;;;;;12.52;6.85;;;;;;;;;;5037020;28;20052;-85
2023/12/09 08:43:00;;;;;;;13.68;8.27;;;;;;;;;;5036837;28;20132;-86
2023/12/09 08:45:26;;;;;;;13.27;7.85;;;;;;;;;;5034534;28;20523;-85
2023/12/09 08:47:52;;;;;;;13.95;7.30;;;;;;;;;;5019843;28;20084;-85
2023/12/09 08:50:17;;;;;;;11.95;5.75;;;;;;;;;;5035392;28;20024;-85
2023/12/09 08:52:43;;;;;;;7.70;4.38;;;;;;;;;;5042131;28;20033;-86
2023/12/09 08:55:09;;;;;;;6.43;3.92;;;;;;;;;;5038590;28;20041;-85
2023/12/09 08:57:35;;;;;;;5.97;4.20;;;;;;;;;;5037690;28;20040;-85
2023/12/09 09:00:01;;;;;;;6.25;4.32;;;;;;;;;;5037275;28;20045;-84
2023/12/09 09:02:26;;;;;;;8.52;4.85;;;;;;;;;;5034475;28;20047;-85
2023/12/09 09:04:52;;;;;;;6.60;4.75;;;;;;;;;;5027114;28;20029;-85
2023/12/09 09:07:18;;;;;;;10.52;5.47;;;;;;;;;;5039360;28;20187;-84
2023/12/09 09:09:44;;;;;;;10.10;6.53;;;;;;;;;;5032784;28;20044;-84
2023/12/09 09:12:09;;;;;;;9.50;5.65;;;;;;;;;;5029898;28;20041;-84
2023/12/09 09:14:36;;;;;;;8.18;5.60;;;;;;;;;;5033860;28;20446;-83
2023/12/09 09:17:03;;;;;;;8.20;5.70;;;;;;;;;;5035678;28;20103;-85
2023/12/09 09:19:28;;;;;;;7.90;5.38;;;;;;;;;;5037297;28;20029;-83
2023/12/09 09:21:54;;;;;;;6.38;4.53;;;;;;;;;;5037872;28;20553;-85
2023/12/09 09:24:19;;;;;;;6.28;4.03;;;;;;;;;;5031925;28;20034;-85
2023/12/09 09:26:45;;;;;;;7.65;5.03;;;;;;;;;;5037302;28;20487;-84
2023/12/09 09:29:10;;;;;;;8.75;5.55;;;;;;;;;;5032568;28;20049;-85
2023/12/09 09:31:36;;;;;;;8.57;5.50;;;;;;;;;;5036327;28;20046;-83
2023/12/09 09:34:02;;;;;;;8.38;5.32;;;;;;;;;;5036426;28;20091;-84
2023/12/09 09:36:27;;;;;;;6.18;4.70;;;;;;;;;;5043232;28;20083;-84
2023/12/09 09:38:53;;;;;;;8.38;5.50;;;;;;;;;;5043139;28;20041;-84
2023/12/09 09:41:27;;;;;;;8.63;4.90;;;;;;;;;;5040599;28;20680;-83
2023/12/09 09:44:00;;;;;;;9.13;5.10;;;;;;;;;;5038621;28;20082;-85
2023/12/09 09:46:27;;;;;;;6.50;4.00;;;;;;;;;;5031098;28;20032;-84
2023/12/09 09:48:55;;;;;;;6.15;3.40;;;;;;;;;;5040389;28;20113;-86
2023/12/09 09:51:26;;;;;;;6.53;3.60;;;;;;;;;;5034225;28;20067;-84
2023/12/09 09:54:16;;;;;;;6.13;3.92;;;;;;;;;;5023071;28;20033;-85
2023/12/09 09:56:42;;;;;;;5.13;3.58;;;;;;;;;;5035765;28;20120;-86
2023/12/09 09:59:10;;;;;;;4.63;3.22;;;;;;;;;;5040460;28;20041;-86
2023/12/09 10:01:37;;;;;;;4.05;3.08;;;;;;;;;;5045676;28;20050;-86
2023/12/09 10:04:03;;;;;;;4.20;3.33;;;;;;;;;;5042790;28;20033;-86
2023/12/09 10:06:29;;;;;;;5.45;3.45;;;;;;;;;;5043018;28;20037;-86
2023/12/09 10:08:55;;;;;;;4.57;3.30;;;;;;;;;;5034710;28;20531;-87
2023/12/09 10:11:21;;;;;;;4.72;3.15;;;;;;;;;;5036528;28;20097;-86
2023/12/09 10:13:46;;;;;;;5.45;3.13;;;;;;;;;;5042285;28;20049;-87
2023/12/09 10:16:12;;;;;;;4.90;2.85;;;;;;;;;;5035192;28;20068;-87
2023/12/09 10:18:46;;;;;;;3.40;2.50;;;;;;;;;;5041034;28;20039;-86
2023/12/09 10:21:13;;;;;;;4.90;2.90;;;;;;;;;;5045258;28;20068;-85
2023/12/09 10:23:39;;;;;;;4.10;2.50;;;;;;;;;;5043375;28;20070;-85
2023/12/09 10:26:04;;;;;;;4.05;2.80;;;;;;;;;;5039641;28;20041;-86
2023/12/09 10:28:31;;;;;;;6.10;3.00;;;;;;;;;;5033449;28;20038;-85
2023/12/09 10:30:56;;;;;;;4.75;3.17;;;;;;;;;;5038269;28;20048;-84
2023/12/09 10:33:22;;;;;;;4.72;3.03;;;;;;;;;;5035944;28;20041;-86
2023/12/09 10:35:48;;;;;;;5.25;2.67;;;;;;;;;;5039523;28;20045;-86
2023/12/09 10:38:15;;;;;;;3.33;1.75;;;;;;;;;;5039037;28;20033;-87
2023/12/09 10:40:41;;;;;;;2.70;2.10;;;;;;;;;;5035527;28;20032;-88
2023/12/09 10:43:07;;;;;;;4.35;2.50;;;;;;;;;;5037244;28;20423;-88
2023/12/09 10:45:32;;;;;;;12.00;6.57;;;;;;;;;;5035140;28;20037;-90
2023/12/09 10:47:57;;;;;;;4.70;3.33;;;;;;;;;;5037230;28;20426;-89
2023/12/09 10:50:23;;;;;;;12.00;7.93;;;;;;;;;;5033667;28;20550;-88
2023/12/09 10:52:49;;;;;;;11.20;6.47;;;;;;;;;;5037523;28;20099;-89
2023/12/09 10:55:15;;;;;;;4.70;3.15;;;;;;;;;;5037154;28;20063;-86
2023/12/09 10:57:43;;;;;;;6.20;3.60;;;;;;;;;;5036432;28;20037;-89
2023/12/09 11:00:10;;;;;;;6.05;3.63;;;;;;;;;;5033284;28;20048;-88
2023/12/09 11:02:40;;;;;;;6.00;3.45;;;;;;;;;;5040837;28;20483;-89
2023/12/09 11:05:12;;;;;;;7.63;4.63;;;;;;;;;;5037422;28;20479;-88
2023/12/09 11:07:39;;;;;;;5.13;3.10;;;;;;;;;;5038821;28;20033;-88
2023/12/09 11:10:06;;;;;;;6.65;3.13;;;;;;;;;;5033801;28;20046;-88
2023/12/09 11:12:33;;;;;;;5.15;2.90;;;;;;;;;;5034314;28;20621;-88
2023/12/09 11:15:16;;;;;;;7.15;3.28;;;;;;;;;;5045411;28;20048;-89
2023/12/09 11:17:44;;;;;;;5.50;2.33;;;;;;;;;;5041523;28;20037;-90
2023/12/09 11:20:18;;;;;;;10.40;3.30;;;;;;;;;;5041371;28;20159;-89
2023/12/09 11:22:47;;;;;;;5.07;2.78;;;;;;;;;;5035047;28;20496;-90
2023/12/09 11:25:21;;;;;;;8.20;3.30;;;;;;;;;;5032203;28;20057;-89
2023/12/09 11:27:51;;;;;;;6.72;3.10;;;;;;;;;;5031299;28;20499;-89
2023/12/09 11:30:30;;;;;;;10.77;3.60;;;;;;;;;;5029553;28;20044;-89
2023/12/09 11:32:55;;;;;;;11.10;4.00;;;;;;;;;;5038161;28;20033;-86
2023/12/09 11:35:21;;;;;;;16.33;4.57;;;;;;;;;;5040070;28;20093;-86
2023/12/09 11:37:49;;;;;;;11.20;3.15;;;;;;;;;;5043236;28;20052;-88
2023/12/09 11:40:14;;;;;;;8.43;2.70;;;;;;;;;;5040118;28;20036;-88
2023/12/09 11:42:41;;;;;;;4.30;1.98;;;;;;;;;;5042674;28;20041;-88
2023/12/09 11:45:08;;;;;;;3.42;2.15;;;;;;;;;;5044362;28;20037;-88
2023/12/09 11:47:36;;;;;;;2.70;1.60;;;;;;;;;;5042241;28;20029;-87
2023/12/09 11:50:01;;;;;;;3.90;1.60;;;;;;;;;;5038001;28;20475;-88
2023/12/09 11:52:27;;;;;;;2.85;1.70;;;;;;;;;;5018276;28;20040;-88
2023/12/09 11:55:04;;;;;;;1.98;1.42;;;;;;;;;;5042193;28;20728;-87
2023/12/09 11:57:32;;;;;;;4.35;1.83;;;;;;;;;;5044496;28;20051;-88
2023/12/09 11:59:58;;;;;;;4.60;2.58;;;;;;;;;;5039775;28;20061;-88
2023/12/09 12:02:23;;;;;;;2.88;1.70;;;;;;;;;;5040837;28;20037;-88
2023/12/09 12:04:49;;;;;;;5.07;2.40;;;;;;;;;;5027037;28;20048;-90
2023/12/09 12:07:15;;;;;;;3.65;1.55;;;;;;;;;;5039739;28;20041;-87
2023/12/09 12:09:40;;;;;;;2.30;1.55;;;;;;;;;;5038945;28;20498;-87
2023/12/09 12:12:06;;;;;;;2.47;1.58;;;;;;;;;;5041549;28;20051;-88
2023/12/09 12:14:32;;;;;;;4.10;1.67;;;;;;;;;;5036057;28;20041;-87
2023/12/09 12:16:58;;;;;;;4.32;2.42;;;;;;;;;;5040437;28;20033;-88
2023/12/09 12:19:25;;;;;;;6.07;2.60;;;;;;;;;;5038334;28;20033;-88
2023/12/09 12:21:54;;;;;;;3.90;2.17;;;;;;;;;;5039843;28;20045;-87
2023/12/09 12:24:20;;;;;;;3.78;2.22;;;;;;;;;;5038375;28;20069;-88
2023/12/09 12:26:49;;;;;;;4.47;2.70;;;;;;;;;;5038657;28;20506;-89
2023/12/09 12:29:18;;;;;;;5.43;3.40;;;;;;;;;;5044520;28;20041;-87
2023/12/09 12:31:47;;;;;;;8.45;3.35;;;;;;;;;;5031521;28;20037;-89
2023/12/09 12:34:17;;;;;;;3.67;2.55;;;;;;;;;;5037837;28;20064;-87
2023/12/09 12:36:43;;;;;;;4.97;2.70;;;;;;;;;;5043222;28;20037;-89
2023/12/09 12:39:11;;;;;;;4.32;2.13;;;;;;;;;;5042232;28;20079;-86
2023/12/09 12:41:37;;;;;;;4.47;2.20;;;;;;;;;;5035705;28;20029;-86
2023/12/09 12:44:05;;;;;;;3.78;1.95;;;;;;;;;;5043525;28;20029;-91
2023/12/09 12:46:30;;;;;;;4.55;2.15;;;;;;;;;;5040503;28;20029;-89
2023/12/09 12:48:56;;;;;;;7.25;2.38;;;;;;;;;;5043093;28;20034;-85
2023/12/09 12:51:21;;;;;;;5.97;2.92;;;;;;;;;;5052219;28;20096;-85
2023/12/09 12:53:47;;;;;;;4.28;2.50;;;;;;;;;;5035411;28;20127;-86
2023/12/09 12:56:12;;;;;;;5.85;2.72;;;;;;;;;;5027825;28;20131;-88
2023/12/09 12:58:39;;;;;;;4.65;3.08;;;;;;;;;;5037836;28;20072;-85
2023/12/09 13:01:05;;;;;;;4.88;3.40;;;;;;;;;;5034492;28;20114;-87
2023/12/09 13:03:32;;;;;;;7.20;3.30;;;;;;;;;;5035145;28;20041;-86
2023/12/09 13:05:59;;;;;;;5.95;3.33;;;;;;;;;;5039673;28;20094;-86
2023/12/09 13:08:26;;;;;;;4.57;2.90;;;;;;;;;;5041064;28;20042;-86
2023/12/09 13:10:53;;;;;;;5.90;3.30;;;;;;;;;;5035995;28;20128;-86
2023/12/09 13:13:18;;;;;;;5.55;3.38;;;;;;;;;;5031107;28;20033;-86
2023/12/09 13:15:44;;;;;;;5.68;3.80;;;;;;;;;;5036050;28;20075;-86
2023/12/09 13:18:12;;;;;;;5.25;3.45;;;;;;;;;;5034430;28;20043;-87
2023/12/09 13:20:46;;;;;;;5.40;3.45;;;;;;;;;;5042718;28;20116;-87
2023/12/09 13:23:13;;;;;;;4.95;2.78;;;;;;;;;;5034568;28;20138;-87
2023/12/09 13:25:38;;;;;;;4.32;3.05;;;;;;;;;;5037175;28;20137;-86
2023/12/09 13:28:04;;;;;;;6.80;4.00;;;;;;;;;;5037637;28;20040;-86
2023/12/09 13:30:30;;;;;;;6.15;3.67;;;;;;;;;;5042639;28;20036;-86
2023/12/09 13:33:02;;;;;;;5.57;3.90;;;;;;;;;;5033546;28;20064;-86
2023/12/09 13:35:31;;;;;;;6.93;3.40;;;;;;;;;;5033447;28;20038;-87
2023/12/09 13:37:57;;;;;;;6.10;3.65;;;;;;;;;;5037810;28;20069;-86
2023/12/09 13:40:23;;;;;;;10.70;6.00;;;;;;;;;;5041610;28;20443;-86
2023/12/09 13:42:52;;;;;;;8.77;5.32;;;;;;;;;;5040527;28;20029;-86
2023/12/09 13:45:18;;;;;;;7.05;4.35;;;;;;;;;;5039284;28;20048;-86
2023/12/09 13:47:44;;;;;;;6.57;3.72;;;;;;;;;;5037615;28;20120;-85
2023/12/09 13:50:10;;;;;;;10.20;4.03;;;;;;;;;;5037467;28;20124;-86
2023/12/09 13:52:36;;;;;;;6.60;4.30;;;;;;;;;;5042605;28;20419;-86
2023/12/09 13:55:03;;;;;;;7.75;4.13;;;;;;;;;;5026922;28;20144;-86
2023/12/09 13:57:29;;;;;;;6.22;3.70;;;;;;;;;;5025756;28;20128;-87
2023/12/09 13:59:54;;;;;;;4.93;3.20;;;;;;;;;;5037626;28;20111;-84
2023/12/09 14:02:20;;;;;;;5.38;3.60;;;;;;;;;;5043736;28;20060;-85
2023/12/09 14:04:46;;;;;;;7.32;3.40;;;;;;;;;;5036970;28;20084;-86
2023/12/09 14:07:11;;;;;;;5.07;3.38;;;;;;;;;;5032977;28;20488;-85
2023/12/09 14:09:37;;;;;;;7.78;3.80;;;;;;;;;;5034665;28;20042;-86
2023/12/09 14:12:04;;;;;;;5.95;3.60;;;;;;;;;;5036849;28;20098;-85
2023/12/09 14:14:31;;;;;;;5.57;3.63;;;;;;;;;;5042972;28;20046;-85
2023/12/09 14:16:57;;;;;;;7.22;3.80;;;;;;;;;;5033691;28;20038;-85
2023/12/09 14:19:24;;;;;;;6.10;3.58;;;;;;;;;;5031273;28;20045;-84
2023/12/09 14:21:50;;;;;;;8.02;3.95;;;;;;;;;;5035912;28;20041;-85
2023/12/09 14:24:16;;;;;;;7.20;3.20;;;;;;;;;;5037184;28;20037;-85
2023/12/09 14:26:42;;;;;;;5.90;3.38;;;;;;;;;;5036176;28;20060;-84
2023/12/09 14:29:08;;;;;;;4.78;3.15;;;;;;;;;;5034133;28;20166;-84
2023/12/09 14:31:33;;;;;;;6.22;2.40;;;;;;;;;;5041928;28;20200;-85
2023/12/09 14:33:59;;;;;;;6.13;3.28;;;;;;;;;;5043315;28;20745;-84
2023/12/09 14:36:24;;;;;;;4.70;2.83;;;;;;;;;;5013726;28;20539;-84